Terminal Aerodrome Forecast
Issued by NWS

Home | Current Version | Previous Version | Text Only | Print | Product List | Glossary On
Versions: 1 2 3 4 5 6 7 8 9 10 11 12 13 14 15 16 17
000
FTUS44 KLZK 300600 AAA
TAFPBF
TAF AMD
KPBF 300605Z 3006/3106 32008KT P6SM VCSH SCT060
     FM301400 VRB06KT P6SM FEW035
     FM302300 17005KT P6SM SCT040 SCT120=

USA.gov is the U.S. government's official web portal to all federal, state and local government web resources and services.